Station Historical Data
Daily Summary for December 07, 2017 Units:  Metric    English   Both
« Previous Day
Next Day »
Daily Weekly Monthly Yearly Custom
  High: Low: Average:
Temperature: 17.7 °C 7.2 °C 12.2 °C
Dew Point: 5.3 °C -8.8 °C -3.7 °C
Humidity: 51 % 21 % 33 %
Wind Speed: 37 km/h 0 km/h 3.5 km/h
Wind Gust: 49.9 km/h - -
Wind:- - ESE
Pressure: 1033.1 hPa 1029.7 hPa -
Precipitation: 0 mm    
Historical Graphs
 
 
Tabular Data for December 07, 2017
Time Temperature Dew Point Pressure Wind Wind Speed Wind Gust Humidity Rainfall Rate (Hourly) solar
00:00 10.9 °C -5.5 °C 1029.7 hPa Calm   9.7 km/h 31 % 0 mm 0.00 W/m2
00:29 10.6 °C -5 °C 1029.7 hPa East 3.2 km/h 17.7 km/h 33 % 0 mm 0.00 W/m2
00:34 10.6 °C -5.4 °C 1029.7 hPa ESE 1.6 km/h 24.1 km/h 32 % 0 mm 0.00 W/m2
00:39 10.5 °C -5.1 °C 1029.7 hPa ESE 6.4 km/h 20.9 km/h 33 % 0 mm 0.00 W/m2
00:44 10.5 °C -5.5 °C 1029.7 hPa Calm   19.3 km/h 32 % 0 mm 0.00 W/m2
00:49 10.4 °C -6.4 °C 1029.7 hPa ESE 8 km/h 17.7 km/h 30 % 0 mm 0.00 W/m2
00:54 10.5 °C -6.3 °C 1029.7 hPa East 11.3 km/h 14.5 km/h 30 % 0 mm 0.00 W/m2
00:59 10.6 °C -5.8 °C 1029.7 hPa ESE 1.6 km/h 12.9 km/h 31 % 0 mm 0.00 W/m2
01:04 10.6 °C -5.8 °C 1029.7 hPa ESE 8 km/h 14.5 km/h 31 % 0 mm 0.00 W/m2
01:09 10.6 °C -6.2 °C 1029.7 hPa ESE 12.9 km/h 14.5 km/h 30 % 0 mm 0.00 W/m2
01:14 10.7 °C -6.7 °C 1029.7 hPa Calm   17.7 km/h 29 % 0 mm 0.00 W/m2
01:16 10.7 °C -6.2 °C 1029.7 hPa East 1.6 km/h 8 km/h 30 % 0 mm 0.00 W/m2
01:21 10.8 °C -6.1 °C 1029.7 hPa East 1.6 km/h 11.3 km/h 30 % 0 mm 0.00 W/m2
01:26 10.8 °C -7.4 °C 1029.7 hPa ESE 8 km/h 14.5 km/h 27 % 0 mm 0.00 W/m2
01:31 10.9 °C -6.4 °C 1029.7 hPa ESE 8 km/h 12.9 km/h 29 % 0 mm 0.00 W/m2
01:37 11 °C -7.3 °C 1029.7 hPa Calm   6.4 km/h 27 % 0 mm 0.00 W/m2
01:42 11.1 °C -7.2 °C 1030 hPa Calm   3.2 km/h 27 % 0 mm 0.00 W/m2
01:47 11 °C -5.9 °C 1030 hPa ESE 3.2 km/h 3.2 km/h 30 % 0 mm 0.00 W/m2
01:52 10.9 °C -5.5 °C 1030 hPa Calm   3.2 km/h 31 % 0 mm 0.00 W/m2
01:57 10.8 °C -6.1 °C 1030.4 hPa ESE 1.6 km/h 3.2 km/h 30 % 0 mm 0.00 W/m2
02:02 10.7 °C -6.7 °C 1030.4 hPa Calm   3.2 km/h 29 % 0 mm 0.00 W/m2
02:07 10.5 °C -6.3 °C 1030.7 hPa Calm   1.6 km/h 30 % 0 mm 0.00 W/m2
02:12 10.3 °C -6.6 °C 1030.7 hPa Calm   1.6 km/h 30 % 0 mm 0.00 W/m2
02:17 9.9 °C -6 °C 1030.7 hPa Calm     32 % 0 mm 0.00 W/m2
02:22 9.7 °C -5.8 °C 1030.7 hPa Calm     33 % 0 mm 0.00 W/m2
02:27 9.4 °C -5.6 °C 1030.7 hPa Calm   1.6 km/h 34 % 0 mm 0.00 W/m2
02:32 9.3 °C -5.7 °C 1030.7 hPa Calm     34 % 0 mm 0.00 W/m2
02:37 9.2 °C -5.8 °C 1030.7 hPa Calm   1.6 km/h 34 % 0 mm 0.00 W/m2
02:42 9.1 °C -5.9 °C 1031 hPa Calm     34 % 0 mm 0.00 W/m2
02:44 9.1 °C -6 °C 1031 hPa SE 1.6 km/h 6.4 km/h 34 % 0 mm 0.00 W/m2
02:49 8.9 °C -6.4 °C 1031 hPa Calm   3.2 km/h 33 % 0 mm 0.00 W/m2
02:54 8.8 °C -5.4 °C 1031 hPa Calm   8 km/h 36 % 0 mm 0.00 W/m2
02:59 8.6 °C -5.3 °C 1031.4 hPa Calm   6.4 km/h 37 % 0 mm 0.00 W/m2
03:04 8.4 °C -5.4 °C 1031.4 hPa Calm   3.2 km/h 37 % 0 mm 0.00 W/m2
03:09 8.2 °C -5.6 °C 1031.4 hPa Calm   3.2 km/h 37 % 0 mm 0.00 W/m2
03:14 8 °C -5.8 °C 1031.4 hPa Calm     37 % 0 mm 0.00 W/m2
03:16 7.9 °C -6.2 °C 1031.4 hPa Calm     36 % 0 mm 0.00 W/m2
03:21 7.8 °C -5.3 °C 1031.4 hPa Calm     39 % 0 mm 0.00 W/m2
03:26 7.7 °C -5.4 °C 1031.4 hPa ESE 1.6 km/h 3.2 km/h 39 % 0 mm 0.00 W/m2
03:31 7.6 °C -5.2 °C 1031.4 hPa ESE 1.6 km/h 1.6 km/h 40 % 0 mm 0.00 W/m2
03:36 7.5 °C -5.2 °C 1031.4 hPa Calm   6.4 km/h 40 % 0 mm 0.00 W/m2
03:41 7.4 °C -4.9 °C 1031.4 hPa Calm   1.6 km/h 41 % 0 mm 0.00 W/m2
03:46 7.4 °C -4.7 °C 1031.4 hPa Calm     42 % 0 mm 0.00 W/m2
03:51 7.3 °C -5.4 °C 1031.4 hPa Calm   6.4 km/h 40 % 0 mm 0.00 W/m2
03:56 7.2 °C -5.5 °C 1031.4 hPa Calm   1.6 km/h 40 % 0 mm 0.00 W/m2
04:01 7.2 °C -5.2 °C 1031.4 hPa Calm   3.2 km/h 41 % 0 mm 0.00 W/m2
04:06 7.2 °C -5.5 °C 1031.4 hPa Calm   3.2 km/h 40 % 0 mm 0.00 W/m2
04:11 7.2 °C -5.5 °C 1031.7 hPa Calm     40 % 0 mm 0.00 W/m2
04:16 7.3 °C -5.4 °C 1031.7 hPa Calm     40 % 0 mm 0.00 W/m2
04:21 7.3 °C -5.7 °C 1031.7 hPa Calm   1.6 km/h 39 % 0 mm 0.00 W/m2
04:26 7.4 °C -5.3 °C 1031.7 hPa Calm   1.6 km/h 40 % 0 mm 0.00 W/m2
04:31 7.4 °C -5.3 °C 1031.7 hPa Calm   6.4 km/h 40 % 0 mm 0.00 W/m2
04:36 7.5 °C -6.2 °C 1031.7 hPa ESE 9.7 km/h 9.7 km/h 37 % 0 mm 0.00 W/m2
04:51 7.5 °C -5.2 °C 1032.1 hPa Calm   9.7 km/h 40 % 0 mm 0.00 W/m2
05:01 7.4 °C -5.7 °C 1032.1 hPa Calm   3.2 km/h 39 % 0 mm 0.00 W/m2
05:11 7.3 °C -5.4 °C 1032.1 hPa East 8 km/h 9.7 km/h 40 % 0 mm 0.00 W/m2
05:16 7.3 °C -5.4 °C 1032.4 hPa Calm   8 km/h 40 % 0 mm 0.00 W/m2
05:21 7.3 °C -6.1 °C 1032.4 hPa East 3.2 km/h 6.4 km/h 38 % 0 mm 0.00 W/m2
05:26 7.3 °C -5.7 °C 1032.4 hPa Calm   6.4 km/h 39 % 0 mm 0.00 W/m2
05:31 7.3 °C -6.4 °C 1032.4 hPa ESE 8 km/h 8 km/h 37 % 0 mm 0.00 W/m2
05:36 7.4 °C -5.6 °C 1032.4 hPa East 1.6 km/h 11.3 km/h 39 % 0 mm 0.00 W/m2
05:41 7.4 °C -5.6 °C 1032.4 hPa Calm   9.7 km/h 39 % 0 mm 0.00 W/m2
05:46 7.5 °C -5.9 °C 1032.4 hPa East 3.2 km/h 8 km/h 38 % 0 mm 0.00 W/m2
05:51 7.6 °C -5.8 °C 1032.4 hPa ESE 8 km/h 8 km/h 38 % 0 mm 0.00 W/m2
05:56 7.7 °C -5.4 °C 1032.4 hPa ESE 8 km/h 9.7 km/h 39 % 0 mm 0.00 W/m2
05:59 7.7 °C -5.7 °C 1032.4 hPa Calm   9.7 km/h 38 % 0 mm 0.00 W/m2
06:04 7.8 °C -5.6 °C 1032.7 hPa Calm   8 km/h 38 % 0 mm 0.00 W/m2
06:09 7.9 °C -5.2 °C 1032.7 hPa ESE 1.6 km/h 11.3 km/h 39 % 0 mm 0.00 W/m2
06:14 7.9 °C -4.9 °C 1032.7 hPa East 11.3 km/h 11.3 km/h 40 % 0 mm 0.00 W/m2
06:19 7.9 °C -5.2 °C 1032.7 hPa East 3.2 km/h 8 km/h 39 % 0 mm 0.00 W/m2
06:24 7.8 °C -5.3 °C 1032.7 hPa ESE 8 km/h 11.3 km/h 39 % 0 mm 0.00 W/m2
06:29 7.8 °C -5.6 °C 1032.7 hPa ESE 14.5 km/h 14.5 km/h 38 % 0 mm 0.00 W/m2
06:34 7.8 °C -5.6 °C 1032.7 hPa Calm   11.3 km/h 38 % 0 mm 0.00 W/m2
06:39 7.8 °C -5.9 °C 1032.7 hPa ESE 1.6 km/h 11.3 km/h 37 % 0 mm 0.00 W/m2
06:44 7.8 °C -5.9 °C 1032.7 hPa East 8 km/h 12.9 km/h 37 % 0 mm 0.00 W/m2
06:49 7.8 °C -5.7 °C 1032.7 hPa Calm   11.3 km/h 38 % 0 mm 0.00 W/m2
06:54 7.7 °C -5.3 °C 1032.7 hPa East 8 km/h 12.9 km/h 39 % 0 mm 0.00 W/m2
06:59 7.7 °C -6.4 °C 1032.7 hPa East 11.3 km/h 11.3 km/h 36 % 0 mm 0.00 W/m2
07:04 7.7 °C -6.1 °C 1032.7 hPa Calm   19.3 km/h 37 % 0 mm 5.00 W/m2
07:05 7.8 °C -6 °C 1032.7 hPa East 12.9 km/h 19.3 km/h 37 % 0 mm 5.00 W/m2
07:10 7.8 °C -6.3 °C 1032.7 hPa Calm   12.9 km/h 36 % 0 mm 7.00 W/m2
07:20 7.9 °C -5.8 °C 1032.7 hPa East 3.2 km/h 19.3 km/h 37 % 0 mm 11.00 W/m2
07:25 8.1 °C -6.1 °C 1032.7 hPa East 8 km/h 17.7 km/h 36 % 0 mm 12.00 W/m2
07:30 8.2 °C -6.8 °C 1032.7 hPa Calm   19.3 km/h 34 % 0 mm 16.00 W/m2
07:31 8.2 °C -6.8 °C 1032.7 hPa East 6.4 km/h 11.3 km/h 34 % 0 mm 18.00 W/m2
07:46 8.4 °C -5.4 °C 1032.7 hPa Calm   11.3 km/h 37 % 0 mm 26.00 W/m2
07:51 8.4 °C -5.4 °C 1032.7 hPa ESE 6.4 km/h 11.3 km/h 37 % 0 mm 62.00 W/m2
08:01 8.4 °C -6.2 °C 1032.7 hPa East 1.6 km/h 12.9 km/h 35 % 0 mm 93.00 W/m2
08:06 8.4 °C -5.8 °C 1032.7 hPa East 1.6 km/h 22.5 km/h 36 % 0 mm 104.00 W/m2
08:11 8.6 °C -5.7 °C 1032.7 hPa ESE 8 km/h 11.3 km/h 36 % 0 mm 125.00 W/m2
08:16 8.7 °C -6.3 °C 1032.7 hPa East 11.3 km/h 11.3 km/h 34 % 0 mm 139.00 W/m2
08:26 8.9 °C -5 °C 1032.7 hPa East 11.3 km/h 17.7 km/h 37 % 0 mm 174.00 W/m2
08:31 9 °C -4.9 °C 1033.1 hPa ESE 8 km/h 30.6 km/h 37 % 0 mm 185.00 W/m2
08:36 9.2 °C -5.1 °C 1032.7 hPa East 1.6 km/h 20.9 km/h 36 % 0 mm 209.00 W/m2
08:41 9.2 °C -4.7 °C 1032.7 hPa ESE 1.6 km/h 20.9 km/h 37 % 0 mm 225.00 W/m2
08:52 9.4 °C -4.5 °C 1032.7 hPa East 1.6 km/h 16.1 km/h 37 % 0 mm 264.00 W/m2
08:57 9.6 °C -4.7 °C 1032.7 hPa East 19.3 km/h 19.3 km/h 36 % 0 mm 281.00 W/m2
09:07 10.1 °C -4.7 °C 1033.1 hPa ESE 17.7 km/h 17.7 km/h 35 % 0 mm 311.00 W/m2
09:12 10.3 °C -5.3 °C 1033.1 hPa East 8 km/h 22.5 km/h 33 % 0 mm 325.00 W/m2
09:22 10.7 °C -4.6 °C 1032.7 hPa Calm   19.3 km/h 34 % 0 mm 352.00 W/m2
09:27 10.9 °C -4.3 °C 1032.7 hPa ESE 8 km/h 17.7 km/h 34 % 0 mm 359.00 W/m2
09:32 11.1 °C -4.2 °C 1033.1 hPa East 6.4 km/h 19.3 km/h 34 % 0 mm 374.00 W/m2
09:37 11.3 °C -3.9 °C 1033.1 hPa East 3.2 km/h 14.5 km/h 34 % 0 mm 383.00 W/m2
09:47 11.7 °C -4.8 °C 1033.1 hPa Calm   14.5 km/h 31 % 0 mm 403.00 W/m2
09:52 11.9 °C -4.3 °C 1033.1 hPa Calm   9.7 km/h 32 % 0 mm 410.00 W/m2
09:57 12.1 °C -3.7 °C 1033.1 hPa Calm   8 km/h 33 % 0 mm 422.00 W/m2
10:07 12.4 °C -3.8 °C 1033.1 hPa Calm   6.4 km/h 32 % 0 mm 439.00 W/m2
10:12 12.7 °C -3.6 °C 1032.7 hPa ESE 3.2 km/h 6.4 km/h 32 % 0 mm 446.00 W/m2
10:17 13.1 °C -3.3 °C 1032.7 hPa SE 3.2 km/h 9.7 km/h 32 % 0 mm 455.00 W/m2
10:22 13.3 °C -2.6 °C 1032.7 hPa ESE 9.7 km/h 9.7 km/h 33 % 0 mm 462.00 W/m2
10:32 13.7 °C -1.4 °C 1032.7 hPa Calm     35 % 0 mm 476.00 W/m2
10:37 13.8 °C -1.8 °C 1032.7 hPa Calm     34 % 0 mm 482.00 W/m2
10:42 13.9 °C -1.3 °C 1032.4 hPa East 3.2 km/h 9.7 km/h 35 % 0 mm 489.00 W/m2
10:52 14.3 °C -0.2 °C 1032.4 hPa Calm   6.4 km/h 37 % 0 mm 497.00 W/m2
10:57 14.4 °C -0.4 °C 1032.4 hPa Calm     36 % 0 mm 504.00 W/m2
11:02 14.6 °C 0.8 °C 1032.1 hPa East 8 km/h 11.3 km/h 39 % 0 mm 508.00 W/m2
11:07 14.8 °C -0.1 °C 1032.1 hPa East 1.6 km/h 8 km/h 36 % 0 mm 512.00 W/m2
11:12 15.1 °C 0.9 °C 1032.1 hPa ENE 3.2 km/h 11.3 km/h 38 % 0 mm 515.00 W/m2
11:17 15.3 °C -0.1 °C 1032.1 hPa Calm   1.6 km/h 35 % 0 mm 517.00 W/m2
11:22 15.4 °C -1.2 °C 1031.7 hPa Calm     32 % 0 mm 519.00 W/m2
11:32 15.7 °C 0.7 °C 1031.7 hPa Calm     36 % 0 mm 522.00 W/m2
11:37 16.1 °C 1.4 °C 1031.7 hPa Calm   1.6 km/h 37 % 0 mm 526.00 W/m2
11:42 16.2 °C 0.7 °C 1031.7 hPa Calm     35 % 0 mm 526.00 W/m2
11:47 16.4 °C 1.3 °C 1031.7 hPa ENE 3.2 km/h 3.2 km/h 36 % 0 mm 526.00 W/m2
11:52 16.7 °C 1.2 °C 1031.4 hPa Calm     35 % 0 mm 524.00 W/m2
11:57 16.9 °C 0.6 °C 1031.4 hPa Calm     33 % 0 mm 526.00 W/m2
12:02 17.1 °C -1.1 °C 1031.4 hPa NNE 3.2 km/h 4.8 km/h 29 % 0 mm 524.00 W/m2
12:07 17.2 °C 1.6 °C 1031.4 hPa North 3.2 km/h 4.8 km/h 35 % 0 mm 522.00 W/m2
12:12 17.2 °C 1.2 °C 1031 hPa Calm     34 % 0 mm 520.00 W/m2
12:17 17.3 °C -0.9 °C 1031 hPa North 3.2 km/h 3.2 km/h 29 % 0 mm 519.00 W/m2
12:22 17.4 °C 0.9 °C 1031 hPa North 1.6 km/h 3.2 km/h 33 % 0 mm 517.00 W/m2
12:27 17.4 °C -3.4 °C 1031 hPa Calm     24 % 0 mm 513.00 W/m2
12:32 17.4 °C -2.3 °C 1031 hPa Calm   4.8 km/h 26 % 0 mm 512.00 W/m2
12:37 17.4 °C -5.2 °C 1030.7 hPa Calm   6.4 km/h 21 % 0 mm 508.00 W/m2
12:42 17.4 °C -4.5 °C 1030.7 hPa Calm   3.2 km/h 22 % 0 mm 503.00 W/m2
12:47 17.5 °C -3.8 °C 1030.7 hPa Calm   4.8 km/h 23 % 0 mm 499.00 W/m2
12:58 17.6 °C -4.4 °C 1030.7 hPa Calm   6.4 km/h 22 % 0 mm 489.00 W/m2
13:03 17.7 °C -2.6 °C 1030.4 hPa Calm   4.8 km/h 25 % 0 mm 483.00 W/m2
13:08 17.7 °C -1.1 °C 1030.4 hPa Calm   4.8 km/h 28 % 0 mm 476.00 W/m2
13:13 17.7 °C 1.6 °C 1030.4 hPa NNW 3.2 km/h 8 km/h 34 % 0 mm 471.00 W/m2
13:18 17.6 °C 0.7 °C 1030.4 hPa Calm     32 % 0 mm 464.00 W/m2
13:23 17.5 °C 1.1 °C 1030.4 hPa Calm     33 % 0 mm 457.00 W/m2
13:28 17.4 °C 1.4 °C 1030.4 hPa Calm   3.2 km/h 34 % 0 mm 450.00 W/m2
13:33 17.3 °C 0.5 °C 1030.4 hPa Calm   4.8 km/h 32 % 0 mm 441.00 W/m2
13:38 17.4 °C 1.4 °C 1030.4 hPa Calm   1.6 km/h 34 % 0 mm 432.00 W/m2
13:43 17.4 °C 2.6 °C 1030 hPa Calm   3.2 km/h 37 % 0 mm 424.00 W/m2
13:45 17.4 °C 3.3 °C 1030 hPa Calm   3.2 km/h 39 % 0 mm 418.00 W/m2
13:50 17.3 °C 2.8 °C 1030 hPa Calm   4.8 km/h 38 % 0 mm 411.00 W/m2
13:55 17.2 °C 3.2 °C 1030 hPa NW 4.8 km/h 8 km/h 39 % 0 mm 401.00 W/m2
14:00 17.1 °C 2.7 °C 1030 hPa Calm   3.2 km/h 38 % 0 mm 392.00 W/m2
14:05 17 °C 2.6 °C 1030 hPa Calm   3.2 km/h 38 % 0 mm 381.00 W/m2
14:10 17 °C 2.6 °C 1030 hPa Calm   3.2 km/h 38 % 0 mm 371.00 W/m2
14:15 16.9 °C 2.6 °C 1030 hPa Calm     38 % 0 mm 360.00 W/m2
14:20 16.9 °C 2.5 °C 1030 hPa Calm   4.8 km/h 38 % 0 mm 350.00 W/m2
14:25 16.8 °C 2.8 °C 1030 hPa Calm   4.8 km/h 39 % 0 mm 338.00 W/m2
14:30 16.7 °C 2.3 °C 1030 hPa Calm     38 % 0 mm 329.00 W/m2
14:35 16.7 °C 3.3 °C 1030 hPa Calm     41 % 0 mm 316.00 W/m2
14:40 16.6 °C 3.9 °C 1030 hPa Calm     43 % 0 mm 304.00 W/m2
14:45 16.4 °C 4.2 °C 1030 hPa Calm     44 % 0 mm 292.00 W/m2
14:50 16.3 °C 4.9 °C 1030 hPa Calm   8 km/h 47 % 0 mm 279.00 W/m2
14:55 16.1 °C 5.3 °C 1030 hPa Calm   8 km/h 49 % 0 mm 267.00 W/m2
15:00 15.9 °C 5.2 °C 1030 hPa Calm     49 % 0 mm 251.00 W/m2
15:05 15.7 °C 4.4 °C 1030 hPa Calm   6.4 km/h 47 % 0 mm 237.00 W/m2
15:10 15.6 °C 4.1 °C 1030 hPa Calm   1.6 km/h 46 % 0 mm 221.00 W/m2
15:20 15.5 °C 3.6 °C 1030 hPa NNW 3.2 km/h 6.4 km/h 45 % 0 mm 186.00 W/m2
15:21 15.5 °C 3.6 °C 1030 hPa NNW 1.6 km/h 6.4 km/h 45 % 0 mm 183.00 W/m2
15:26 15.4 °C 4.2 °C 1030 hPa Calm     47 % 0 mm 165.00 W/m2
15:46 15.2 °C 4.3 °C 1030 hPa Calm   1.6 km/h 48 % 0 mm 98.00 W/m2
15:56 15.1 °C 4.7 °C 1030 hPa Calm   11.3 km/h 50 % 0 mm 67.00 W/m2
16:06 14.8 °C 4.7 °C 1030 hPa East 6.4 km/h 19.3 km/h 51 % 0 mm 42.00 W/m2
16:11 14.7 °C 4.7 °C 1030 hPa Calm   17.7 km/h 51 % 0 mm 30.00 W/m2
16:16 14.6 °C 3.4 °C 1030 hPa East 4.8 km/h 4.8 km/h 47 % 0 mm 18.00 W/m2
16:21 14.5 °C 2.4 °C 1030 hPa ENE 1.6 km/h 9.7 km/h 44 % 0 mm 14.00 W/m2
16:26 14.4 °C 1 °C 1030 hPa Calm   6.4 km/h 40 % 0 mm 11.00 W/m2
16:31 14.3 °C 2.2 °C 1030 hPa East 16.1 km/h 19.3 km/h 44 % 0 mm 7.00 W/m2
16:36 14.2 °C 1.5 °C 1029.7 hPa Calm   8 km/h 42 % 0 mm 5.00 W/m2
16:41 14.1 °C 1.4 °C 1029.7 hPa East 14.5 km/h 17.7 km/h 42 % 0 mm 5.00 W/m2
16:46 14 °C 0.3 °C 1030 hPa East 8 km/h 25.7 km/h 39 % 0 mm 0.00 W/m2
16:51 14.1 °C -0.4 °C 1029.7 hPa Calm   20.9 km/h 37 % 0 mm 0.00 W/m2
16:56 14.1 °C -0.4 °C 1030 hPa ENE 11.3 km/h 22.5 km/h 37 % 0 mm 0.00 W/m2
17:01 14.1 °C -2.4 °C 1030 hPa ESE 12.9 km/h 27.4 km/h 32 % 0 mm 0.00 W/m2
17:08 14.2 °C -2.2 °C 1030 hPa East 1.6 km/h 17.7 km/h 32 % 0 mm 0.00 W/m2
17:18 14.6 °C -3.7 °C 1030 hPa ENE 19.3 km/h 35.4 km/h 28 % 0 mm 0.00 W/m2
17:23 14.8 °C -4 °C 1030 hPa SE 3.2 km/h 45.1 km/h 27 % 0 mm 0.00 W/m2
17:28 15.1 °C -4.3 °C 1030 hPa East 17.7 km/h 35.4 km/h 26 % 0 mm 0.00 W/m2
17:33 15.2 °C -4.2 °C 1030 hPa East 3.2 km/h 35.4 km/h 26 % 0 mm 0.00 W/m2
17:38 15.3 °C -4.6 °C 1030 hPa East 12.9 km/h 35.4 km/h 25 % 0 mm 0.00 W/m2
17:43 15.4 °C -5.1 °C 1030 hPa ESE 24.1 km/h 49.9 km/h 24 % 0 mm 0.00 W/m2
17:48 15.4 °C -5.6 °C 1030.4 hPa East 37 km/h 40.2 km/h 23 % 0 mm 0.00 W/m2
17:53 15.4 °C -3.9 °C 1030.4 hPa East 20.9 km/h 41.8 km/h 26 % 0 mm 0.00 W/m2
17:58 15.4 °C -5.6 °C 1030.4 hPa East 37 km/h 37 km/h 23 % 0 mm 0.00 W/m2
18:03 15.4 °C -5.6 °C 1030.7 hPa ENE 24.1 km/h 40.2 km/h 23 % 0 mm 0.00 W/m2
18:08 15.4 °C -5.6 °C 1030.7 hPa ESE 14.5 km/h 37 km/h 23 % 0 mm 0.00 W/m2
18:13 15.4 °C -4.5 °C 1030.7 hPa Calm   38.6 km/h 25 % 0 mm 0.00 W/m2
18:18 15.4 °C -5.6 °C 1030.7 hPa ESE 20.9 km/h 46.7 km/h 23 % 0 mm 0.00 W/m2
18:23 15.3 °C -6.3 °C 1030.7 hPa ESE 29 km/h 49.9 km/h 22 % 0 mm 0.00 W/m2
18:28 15.3 °C -5.7 °C 1030.7 hPa East 27.4 km/h 38.6 km/h 23 % 0 mm 0.00 W/m2
18:33 15.3 °C -4.6 °C 1030.7 hPa ESE 11.3 km/h 35.4 km/h 25 % 0 mm 0.00 W/m2
18:38 15.2 °C -5.8 °C 1030.7 hPa Calm   46.7 km/h 23 % 0 mm 0.00 W/m2
18:43 15.2 °C -6.4 °C 1030.7 hPa ENE 22.5 km/h 37 km/h 22 % 0 mm 0.00 W/m2
18:48 15.3 °C -5.7 °C 1030.7 hPa East 12.9 km/h 37 km/h 23 % 0 mm 0.00 W/m2
18:53 15.3 °C -4.6 °C 1030.7 hPa ENE 8 km/h 33.8 km/h 25 % 0 mm 0.00 W/m2
18:58 15.1 °C -5.9 °C 1030.7 hPa Calm   12.9 km/h 23 % 0 mm 0.00 W/m2
19:03 15.1 °C -5.9 °C 1030.7 hPa Calm   20.9 km/h 23 % 0 mm 0.00 W/m2
19:08 14.9 °C -5.5 °C 1030.7 hPa East 16.1 km/h 30.6 km/h 24 % 0 mm 0.00 W/m2
19:13 14.8 °C -6.7 °C 1030.7 hPa ENE 22.5 km/h 27.4 km/h 22 % 0 mm 0.00 W/m2
19:18 14.7 °C -5.2 °C 1030.7 hPa East 1.6 km/h 24.1 km/h 25 % 0 mm 0.00 W/m2
19:22 14.6 °C -5.2 °C 1030.7 hPa Calm   11.3 km/h 25 % 0 mm 0.00 W/m2
19:27 14.4 °C -7.1 °C 1030.7 hPa Calm   38.6 km/h 22 % 0 mm 0.00 W/m2
19:32 14.3 °C -5.9 °C 1030.7 hPa Calm   4.8 km/h 24 % 0 mm 0.00 W/m2
19:42 14.2 °C -6.6 °C 1030.7 hPa East 1.6 km/h 19.3 km/h 23 % 0 mm 0.00 W/m2
19:47 14.2 °C -7.2 °C 1030.7 hPa East 25.7 km/h 29 km/h 22 % 0 mm 0.00 W/m2
19:52 14.2 °C -6.6 °C 1031 hPa ESE 1.6 km/h 25.7 km/h 23 % 0 mm 0.00 W/m2
19:57 14.2 °C -4.1 °C 1031 hPa Calm   19.3 km/h 28 % 0 mm 0.00 W/m2
20:07 13.7 °C -3.6 °C 1031 hPa Calm   25.7 km/h 30 % 0 mm 0.00 W/m2
20:12 13.3 °C -4.3 °C 1031 hPa Calm     29 % 0 mm 0.00 W/m2
20:22 13 °C -5.6 °C 1031 hPa Calm   3.2 km/h 27 % 0 mm 0.00 W/m2
20:27 12.9 °C -6.1 °C 1031 hPa Calm   1.6 km/h 26 % 0 mm 0.00 W/m2
20:32 12.9 °C -5.7 °C 1031 hPa Calm   3.2 km/h 27 % 0 mm 0.00 W/m2
20:42 12.8 °C -4.8 °C 1031 hPa Calm   6.4 km/h 29 % 0 mm 0.00 W/m2
20:47 12.7 °C -5.4 °C 1031 hPa Calm   8 km/h 28 % 0 mm 0.00 W/m2
20:52 12.6 °C -5 °C 1031 hPa Calm   3.2 km/h 29 % 0 mm 0.00 W/m2
20:57 12.5 °C -5.1 °C 1031 hPa East 1.6 km/h 3.2 km/h 29 % 0 mm 0.00 W/m2
21:02 12.4 °C -3.8 °C 1031 hPa Calm   9.7 km/h 32 % 0 mm 0.00 W/m2
21:07 12.4 °C -5.2 °C 1031 hPa Calm   9.7 km/h 29 % 0 mm 0.00 W/m2
21:22 12.2 °C -4.4 °C 1031 hPa Calm   3.2 km/h 31 % 0 mm 0.00 W/m2
21:27 12 °C -6.9 °C 1031 hPa Calm   1.6 km/h 26 % 0 mm 0.00 W/m2
21:32 11.9 °C -6.9 °C 1031 hPa Calm   8 km/h 26 % 0 mm 0.00 W/m2
21:38 11.9 °C -7 °C 1031 hPa Calm   1.6 km/h 26 % 0 mm 0.00 W/m2
21:43 11.9 °C -6.1 °C 1031.4 hPa Calm     28 % 0 mm 0.00 W/m2
21:48 11.8 °C -6.6 °C 1031.4 hPa Calm   8 km/h 27 % 0 mm 0.00 W/m2
21:53 11.8 °C -7.1 °C 1031.4 hPa Calm   1.6 km/h 26 % 0 mm 0.00 W/m2
21:58 11.8 °C -6.1 °C 1031.4 hPa East 3.2 km/h 6.4 km/h 28 % 0 mm 0.00 W/m2
22:03 11.7 °C -7.2 °C 1031.4 hPa Calm     26 % 0 mm 0.00 W/m2
22:08 11.7 °C -8.8 °C 1031.7 hPa Calm     23 % 0 mm 0.00 W/m2
22:13 11.7 °C -6.7 °C 1031.7 hPa Calm   1.6 km/h 27 % 0 mm 0.00 W/m2
22:18 11.8 °C -7.1 °C 1031.7 hPa Calm     26 % 0 mm 0.00 W/m2
22:28 11.8 °C -5.2 °C 1031.7 hPa Calm   3.2 km/h 30 % 0 mm 0.00 W/m2
22:33 11.7 °C -5.7 °C 1032.1 hPa Calm     29 % 0 mm 0.00 W/m2
22:38 11.7 °C -5.8 °C 1031.7 hPa Calm   3.2 km/h 29 % 0 mm 0.00 W/m2
22:43 11.6 °C -5.9 °C 1032.1 hPa East 1.6 km/h 6.4 km/h 29 % 0 mm 0.00 W/m2
22:48 11.4 °C -3.9 °C 1032.1 hPa Calm   11.3 km/h 34 % 0 mm 0.00 W/m2
22:53 11.2 °C -4.4 °C 1031.7 hPa East 3.2 km/h 9.7 km/h 33 % 0 mm 0.00 W/m2
22:58 11 °C -4.3 °C 1032.1 hPa East 1.6 km/h 8 km/h 34 % 0 mm 0.00 W/m2
23:03 10.9 °C -3.9 °C 1032.1 hPa Calm   3.2 km/h 35 % 0 mm 0.00 W/m2
23:08 10.8 °C -4.4 °C 1032.1 hPa ESE 1.6 km/h 8 km/h 34 % 0 mm 0.00 W/m2
23:13 10.7 °C -5.7 °C 1032.1 hPa Calm   6.4 km/h 31 % 0 mm 0.00 W/m2
23:18 10.7 °C -5.8 °C 1032.1 hPa Calm   11.3 km/h 31 % 0 mm 0.00 W/m2
23:23 10.7 °C -5.3 °C 1032.1 hPa Calm   11.3 km/h 32 % 0 mm 0.00 W/m2
23:28 10.7 °C -6.2 °C 1032.1 hPa Calm   3.2 km/h 30 % 0 mm 0.00 W/m2
23:33 10.7 °C -8 °C 1032.1 hPa Calm     26 % 0 mm 0.00 W/m2
23:38 10.9 °C -8.3 °C 1032.1 hPa East 1.6 km/h 1.6 km/h 25 % 0 mm 0.00 W/m2
23:43 11.1 °C -6.7 °C 1032.1 hPa Calm     28 % 0 mm 0.00 W/m2
23:48 11.2 °C -8.1 °C 1032.1 hPa Calm     25 % 0 mm 0.00 W/m2
23:53 11.3 °C -7.5 °C 1032.1 hPa East 1.6 km/h 3.2 km/h 26 % 0 mm 0.00 W/m2
23:58 11.3 °C -8 °C 1032.1 hPa ENE 3.2 km/h 4.8 km/h 25 % 0 mm 0.00 W/m2
Juneau County Weather
Compliments of Weather Underground - 4.25 mb
 WU-history PHP script courtesy of   Juneau County Weather.
powered by Cumulus v1.9.3 (1059)
Ambient Weather VWS v14.00
Top Contact Website Map Copyright © 2007 - 2018 Foresthillweather.com Never base important decisions on this or any weather information obtained from the Internet